createdAt,value
2023-02-03T00:02:03.031Z,14.75
2023-02-03T00:04:29.862Z,14.77
2023-02-03T00:06:56.752Z,14.13
2023-02-03T00:09:23.626Z,14.57
2023-02-03T00:11:50.499Z,15.05
2023-02-03T00:14:17.333Z,15.02
2023-02-03T00:16:44.172Z,16.08
2023-02-03T00:19:10.992Z,15.18
2023-02-03T00:21:37.768Z,17.25
2023-02-03T00:24:04.832Z,17.85
2023-02-03T00:26:31.636Z,17.85
2023-02-03T00:29:00.325Z,18.40
2023-02-03T00:31:27.296Z,18.85
2023-02-03T00:33:56.733Z,19.85
2023-02-03T00:36:25.187Z,18.88
2023-02-03T00:38:52.089Z,18.92
2023-02-03T00:41:20.237Z,19.83
2023-02-03T00:43:47.917Z,20.38
2023-02-03T00:46:15.480Z,20.65
2023-02-03T00:48:42.326Z,20.48
2023-02-03T00:51:09.116Z,19.95
2023-02-03T00:53:35.931Z,21.08
2023-02-03T00:56:02.726Z,21.67
2023-02-03T00:58:29.514Z,20.58
2023-02-03T01:00:59.466Z,21.77
2023-02-03T01:03:26.359Z,21.58
2023-02-03T01:05:53.132Z,21.55
2023-02-03T01:08:20.056Z,21.10
2023-02-03T01:10:46.965Z,19.83
2023-02-03T01:13:13.790Z,20.65
2023-02-03T01:15:47.930Z,14.50
2023-02-03T01:18:15.157Z,20.10
2023-02-03T01:20:41.985Z,19.85
2023-02-03T01:23:08.777Z,20.48
2023-02-03T01:25:36.072Z,20.27
2023-02-03T01:28:02.948Z,20.63
2023-02-03T01:30:30.021Z,20.05
2023-02-03T01:32:57.051Z,19.83
2023-02-03T01:35:23.810Z,20.20
2023-02-03T01:37:50.582Z,19.77
2023-02-03T01:40:17.881Z,19.08
2023-02-03T01:42:44.653Z,19.83
2023-02-03T01:45:13.449Z,17.95
2023-02-03T01:47:54.671Z,18.83
2023-02-03T01:50:29.619Z,17.40
2023-02-03T01:53:03.174Z,17.20
2023-02-03T01:55:40.617Z,17.98
2023-02-03T01:58:21.038Z,19.08
2023-02-03T02:00:49.728Z,17.35
2023-02-03T02:03:20.133Z,16.35
2023-02-03T02:06:08.123Z,17.13
2023-02-03T02:08:36.762Z,15.50
2023-02-03T02:11:05.493Z,16.20
2023-02-03T02:13:37.137Z,15.43
2023-02-03T02:16:37.649Z,15.80
2023-02-03T02:19:38.820Z,15.75
2023-02-03T02:22:21.425Z,13.73
2023-02-03T02:25:31.474Z,13.15
2023-02-03T02:28:22.015Z,13.13
2023-02-03T02:31:49.790Z,13.55
2023-02-03T02:35:00.055Z,13.73
2023-02-03T02:37:53.792Z,12.10
2023-02-03T02:40:37.015Z,12.63
2023-02-03T02:43:08.502Z,12.88
2023-02-03T02:45:48.682Z,13.55
2023-02-03T02:48:50.474Z,12.25
2023-02-03T02:51:18.217Z,12.05
2023-02-03T02:53:51.610Z,12.73
2023-02-03T02:56:19.681Z,13.23
2023-02-03T02:58:49.851Z,13.00
2023-02-03T03:01:17.881Z,11.60
2023-02-03T03:03:45.253Z,12.05
2023-02-03T03:06:31.812Z,10.90
2023-02-03T03:09:17.098Z,11.48
2023-02-03T03:11:54.471Z,10.35
2023-02-03T03:14:26.569Z,11.25
2023-02-03T03:17:18.489Z,10.50
2023-02-03T03:19:55.066Z,10.13
2023-02-03T03:22:29.617Z,11.38
2023-02-03T03:25:04.405Z,10.43
2023-02-03T03:27:37.985Z,11.20
2023-02-03T03:30:43.160Z,10.20
2023-02-03T03:33:10.324Z,10.05
2023-02-03T03:35:52.207Z,9.35
2023-02-03T03:38:34.535Z,8.93
2023-02-03T03:41:24.435Z,9.45
2023-02-03T03:43:56.778Z,8.70
2023-02-03T03:46:35.986Z,9.95
2023-02-03T03:49:05.193Z,8.07
2023-02-03T03:51:45.155Z,9.82
2023-02-03T03:54:16.059Z,8.70
2023-02-03T03:57:07.159Z,8.73
2023-02-03T03:59:39.572Z,8.05
2023-02-03T04:02:07.018Z,8.38
2023-02-03T04:04:36.713Z,8.27
2023-02-03T04:07:03.643Z,7.28
2023-02-03T04:09:30.556Z,6.65
2023-02-03T04:12:03.139Z,6.88
2023-02-03T04:14:33.580Z,8.20
2023-02-03T04:17:01.067Z,6.38
2023-02-03T04:19:28.043Z,6.82
2023-02-03T04:21:54.822Z,6.80
2023-02-03T04:24:21.834Z,6.75
2023-02-03T04:26:48.645Z,7.53
2023-02-03T04:29:15.436Z,6.97
2023-02-03T04:31:42.250Z,6.68
2023-02-03T04:34:09.060Z,6.40
2023-02-03T04:36:35.844Z,6.22
2023-02-03T04:39:02.671Z,6.50
2023-02-03T04:41:29.458Z,5.93
2023-02-03T04:43:56.220Z,5.95
2023-02-03T04:46:23.030Z,5.82
2023-02-03T04:48:49.794Z,5.88
2023-02-03T04:51:16.599Z,7.30
2023-02-03T04:53:43.360Z,5.97
2023-02-03T04:56:10.110Z,5.32
2023-02-03T04:58:37.271Z,5.57
2023-02-03T05:01:09.180Z,5.88
2023-02-03T05:03:36.437Z,5.38
2023-02-03T05:06:04.232Z,5.72
2023-02-03T05:08:31.293Z,5.22
2023-02-03T05:11:00.692Z,5.38
2023-02-03T05:13:28.777Z,6.60
2023-02-03T05:15:55.552Z,5.60
2023-02-03T05:18:22.319Z,5.13
2023-02-03T05:20:49.078Z,5.80
2023-02-03T05:23:15.848Z,5.47
2023-02-03T05:25:44.202Z,5.45
2023-02-03T05:28:11.032Z,5.65
2023-02-03T05:30:38.389Z,5.13
2023-02-03T05:33:05.216Z,5.75
2023-02-03T05:35:32.010Z,5.63
2023-02-03T05:37:59.492Z,5.55
2023-02-03T05:40:45.206Z,5.35
2023-02-03T05:43:12.480Z,5.50
2023-02-03T05:45:39.539Z,5.60
2023-02-03T05:48:07.349Z,5.32
2023-02-03T05:50:38.495Z,5.07
2023-02-03T05:53:06.862Z,5.05
2023-02-03T05:55:34.376Z,4.95
2023-02-03T05:58:01.260Z,5.40
2023-02-03T06:00:28.955Z,4.50
2023-02-03T06:02:58.866Z,4.78
2023-02-03T06:05:26.434Z,4.32
2023-02-03T06:07:54.000Z,5.45
2023-02-03T06:10:21.665Z,5.05
2023-02-03T06:12:49.429Z,5.05
2023-02-03T06:15:16.343Z,4.57
2023-02-03T06:17:48.234Z,5.15
2023-02-03T06:20:18.159Z,4.28
2023-02-03T06:22:45.077Z,4.20
2023-02-03T06:25:14.249Z,5.00
2023-02-03T06:27:41.300Z,4.65
2023-02-03T06:30:09.096Z,4.85
2023-02-03T06:32:35.993Z,4.53
2023-02-03T06:35:02.863Z,4.50
2023-02-03T06:37:29.662Z,4.20
2023-02-03T06:39:56.436Z,5.07
2023-02-03T06:42:23.255Z,5.07
2023-02-03T06:44:50.061Z,4.35
2023-02-03T06:47:16.825Z,5.07
2023-02-03T06:49:43.601Z,5.55
2023-02-03T06:52:10.396Z,4.30
2023-02-03T06:54:37.167Z,4.38
2023-02-03T06:57:04.127Z,4.60
2023-02-03T06:59:30.886Z,4.70
2023-02-03T07:01:57.975Z,5.28
2023-02-03T07:04:24.836Z,4.38
2023-02-03T07:06:51.608Z,4.47
2023-02-03T07:09:18.429Z,5.13
2023-02-03T07:11:45.183Z,5.18
2023-02-03T07:14:11.959Z,4.22
2023-02-03T07:16:39.412Z,4.90
2023-02-03T07:19:06.350Z,5.43
2023-02-03T07:21:33.159Z,5.20
2023-02-03T07:23:59.979Z,5.05
2023-02-03T07:26:26.794Z,5.32
2023-02-03T07:28:54.410Z,5.32
2023-02-03T07:31:21.785Z,5.20
2023-02-03T07:33:48.934Z,5.13
2023-02-03T07:36:15.731Z,5.25
2023-02-03T07:38:42.517Z,5.13
2023-02-03T07:41:09.402Z,4.38
2023-02-03T07:43:36.482Z,4.45
2023-02-03T07:46:03.590Z,4.18
2023-02-03T07:48:30.416Z,4.57
2023-02-03T07:50:57.249Z,4.40
2023-02-03T07:53:24.068Z,4.28
2023-02-03T07:55:51.024Z,5.40
2023-02-03T07:58:17.857Z,5.40
2023-02-03T08:00:45.078Z,4.85
2023-02-03T08:03:11.941Z,4.97
2023-02-03T08:05:38.709Z,5.45
2023-02-03T08:08:05.614Z,4.88
2023-02-03T08:10:32.605Z,4.95
2023-02-03T08:12:59.412Z,5.25
2023-02-03T08:15:26.171Z,4.75
2023-02-03T08:17:52.951Z,4.70
2023-02-03T08:20:19.891Z,5.15
2023-02-03T08:22:46.828Z,4.32
2023-02-03T08:25:13.641Z,4.50
2023-02-03T08:27:41.420Z,5.10
2023-02-03T08:30:12.335Z,4.90
2023-02-03T08:32:39.143Z,5.18
2023-02-03T08:35:06.678Z,4.53
2023-02-03T08:37:34.255Z,4.47
2023-02-03T08:40:01.055Z,4.53
2023-02-03T08:42:28.048Z,4.10
2023-02-03T08:44:54.901Z,4.82
2023-02-03T08:47:22.442Z,5.13
2023-02-03T08:49:49.239Z,4.40
2023-02-03T08:52:18.810Z,4.70
2023-02-03T08:54:46.899Z,4.45
2023-02-03T08:57:14.538Z,5.00
2023-02-03T08:59:43.673Z,4.38
2023-02-03T09:02:17.514Z,4.63
2023-02-03T09:04:46.671Z,4.22
2023-02-03T09:07:13.925Z,4.40
2023-02-03T09:09:40.739Z,3.80
2023-02-03T09:12:07.794Z,4.35
2023-02-03T09:14:35.222Z,4.97
2023-02-03T09:17:03.965Z,4.40
2023-02-03T09:19:34.709Z,4.47
2023-02-03T09:22:02.397Z,4.10
2023-02-03T09:24:29.323Z,4.03
2023-02-03T09:26:56.762Z,4.20
2023-02-03T09:29:23.624Z,4.13
2023-02-03T09:31:53.724Z,3.70
2023-02-03T09:34:21.729Z,4.22
2023-02-03T09:36:48.704Z,4.00
2023-02-03T09:39:15.730Z,3.80
2023-02-03T09:42:25.234Z,3.58
2023-02-03T09:45:14.995Z,3.65
2023-02-03T09:47:44.309Z,3.13
2023-02-03T09:50:34.045Z,3.28
2023-02-03T09:53:12.238Z,4.20
2023-02-03T09:55:44.126Z,3.42
2023-02-03T09:58:14.725Z,3.45
2023-02-03T10:00:50.870Z,2.78
2023-02-03T10:03:51.846Z,3.63
2023-02-03T10:06:39.838Z,3.03
2023-02-03T10:09:43.395Z,3.42
2023-02-03T10:12:45.039Z,3.28
2023-02-03T10:15:22.161Z,3.10
2023-02-03T10:18:01.220Z,2.90
2023-02-03T10:20:45.109Z,3.38
2023-02-03T10:23:27.495Z,3.10
2023-02-03T10:25:57.723Z,2.72
2023-02-03T10:28:30.835Z,3.35
2023-02-03T10:31:01.765Z,4.13
2023-02-03T10:33:31.662Z,2.97
2023-02-03T10:36:22.773Z,2.55
2023-02-03T10:38:58.641Z,2.45
2023-02-03T10:41:25.728Z,2.30
2023-02-03T10:43:53.823Z,1.52
2023-02-03T10:46:32.343Z,1.48
2023-02-03T10:48:59.282Z,2.20
2023-02-03T10:51:32.299Z,1.90
2023-02-03T10:54:00.367Z,1.80
2023-02-03T10:56:32.542Z,2.08
2023-02-03T10:59:00.784Z,2.90
2023-02-03T11:01:47.861Z,2.05
2023-02-03T11:04:32.096Z,2.25
2023-02-03T11:07:06.177Z,3.08
2023-02-03T11:09:40.604Z,2.38
2023-02-03T11:12:20.156Z,2.50
2023-02-03T11:14:53.270Z,2.35
2023-02-03T11:17:23.623Z,3.47
2023-02-03T11:19:53.496Z,3.55
2023-02-03T11:22:37.473Z,2.85
2023-02-03T11:25:17.339Z,1.95
2023-02-03T11:27:44.635Z,3.70
2023-02-03T11:30:27.168Z,3.72
2023-02-03T11:32:54.427Z,3.38
2023-02-03T11:35:33.501Z,3.60
2023-02-03T11:38:02.467Z,4.57
2023-02-03T11:40:34.155Z,5.05
2023-02-03T11:43:05.903Z,3.45
2023-02-03T11:45:43.436Z,4.25
2023-02-03T11:48:39.929Z,3.40
2023-02-03T11:51:51.881Z,3.10
2023-02-03T11:54:43.001Z,3.88
2023-02-03T11:57:39.878Z,5.03
2023-02-03T12:00:27.865Z,3.53
2023-02-03T12:03:35.280Z,3.88
2023-02-03T12:06:48.267Z,4.28
2023-02-03T12:09:57.021Z,3.83
2023-02-03T12:12:48.968Z,3.85
2023-02-03T12:15:46.984Z,4.30
2023-02-03T12:18:31.844Z,4.20
2023-02-03T12:21:18.684Z,4.22
2023-02-03T12:24:33.083Z,4.13
2023-02-03T12:27:29.294Z,3.85
2023-02-03T12:30:27.734Z,5.70
2023-02-03T12:32:59.999Z,3.72
2023-02-03T12:35:34.991Z,3.40
2023-02-03T12:38:12.145Z,3.50
2023-02-03T12:40:58.030Z,5.15
2023-02-03T12:43:39.708Z,4.00
2023-02-03T12:46:31.204Z,3.58
2023-02-03T12:49:13.731Z,4.30
2023-02-03T12:52:00.556Z,4.60
2023-02-03T12:54:55.004Z,4.90
2023-02-03T12:57:27.255Z,3.63
2023-02-03T13:00:29.987Z,4.28
2023-02-03T13:03:14.055Z,4.13
2023-02-03T13:06:15.194Z,4.13
2023-02-03T13:08:53.402Z,4.35
2023-02-03T13:11:41.080Z,3.88
2023-02-03T13:14:26.371Z,4.28
2023-02-03T13:17:23.381Z,4.50
2023-02-03T13:19:55.057Z,5.00
2023-02-03T13:22:24.188Z,4.13
2023-02-03T13:25:15.172Z,3.78
2023-02-03T13:27:59.885Z,4.15
2023-02-03T13:33:48.401Z,3.70
2023-02-03T13:36:41.578Z,4.70
2023-02-03T13:39:47.928Z,4.38
2023-02-03T13:42:28.755Z,5.03
2023-02-03T13:45:23.919Z,3.38
2023-02-03T13:47:56.206Z,3.17
2023-02-03T13:50:28.994Z,3.58
2023-02-03T13:53:15.332Z,3.47
2023-02-03T13:56:03.982Z,4.13
2023-02-03T13:58:35.291Z,3.35
2023-02-03T14:01:30.261Z,3.47
2023-02-03T14:06:52.456Z,4.10
2023-02-03T14:09:31.610Z,4.22
2023-02-03T14:12:20.155Z,3.30
2023-02-03T14:14:53.088Z,3.33
2023-02-03T14:17:42.458Z,3.60
2023-02-03T14:20:41.842Z,3.10
2023-02-03T14:23:18.226Z,4.28
2023-02-03T14:26:03.673Z,3.47
2023-02-03T14:28:44.192Z,4.13
2023-02-03T14:31:25.180Z,3.08
2023-02-03T14:34:05.867Z,4.13
2023-02-03T14:36:44.444Z,3.45
2023-02-03T14:39:20.420Z,4.03
2023-02-03T14:41:59.292Z,3.92
2023-02-03T14:45:03.141Z,3.17
2023-02-03T14:47:32.483Z,3.72
2023-02-03T14:50:17.322Z,3.30
2023-02-03T14:52:57.867Z,3.00
2023-02-03T14:55:52.527Z,3.13
2023-02-03T14:58:44.633Z,3.92
2023-02-03T15:01:36.408Z,4.07
2023-02-03T15:04:12.491Z,4.63
2023-02-03T15:06:45.420Z,4.03
2023-02-03T15:09:51.451Z,3.85
2023-02-03T15:12:27.086Z,3.53
2023-02-03T15:15:28.981Z,2.88
2023-02-03T15:18:20.375Z,4.57
2023-02-03T15:20:47.885Z,3.85
2023-02-03T15:23:26.292Z,3.47
2023-02-03T15:26:02.694Z,3.95
2023-02-03T15:28:30.650Z,3.63
2023-02-03T15:31:26.697Z,3.67
2023-02-03T15:33:56.616Z,3.80
2023-02-03T15:36:56.321Z,4.38
2023-02-03T15:39:57.366Z,4.10
2023-02-03T15:42:37.100Z,4.20
2023-02-03T15:45:37.783Z,3.88
2023-02-03T15:48:29.583Z,3.80
2023-02-03T15:51:07.183Z,4.45
2023-02-03T15:53:48.206Z,3.63
2023-02-03T15:56:40.857Z,3.20
2023-02-03T15:59:33.204Z,3.45
2023-02-03T16:02:06.663Z,4.25
2023-02-03T16:04:33.752Z,4.22
2023-02-03T16:07:00.596Z,3.38
2023-02-03T16:09:41.599Z,4.00
2023-02-03T16:12:27.598Z,3.78
2023-02-03T16:14:57.230Z,3.25
2023-02-03T16:17:39.108Z,5.07
2023-02-03T16:20:11.988Z,3.85
2023-02-03T16:23:09.007Z,3.97
2023-02-03T16:25:36.212Z,4.47
2023-02-03T16:28:28.277Z,4.28
2023-02-03T16:31:33.968Z,4.40
2023-02-03T16:34:21.763Z,5.43
2023-02-03T16:37:07.051Z,4.03
2023-02-03T16:39:52.407Z,4.07
2023-02-03T16:42:39.688Z,4.43
2023-02-03T16:45:36.510Z,4.78
2023-02-03T16:48:23.087Z,4.50
2023-02-03T16:50:51.840Z,4.75
2023-02-03T16:53:24.176Z,4.78
2023-02-03T16:55:54.364Z,5.22
2023-02-03T16:58:21.150Z,5.38
2023-02-03T17:00:51.347Z,4.30
2023-02-03T17:03:24.675Z,4.65
2023-02-03T17:05:52.264Z,4.63
2023-02-03T17:08:22.508Z,4.75
2023-02-03T17:10:49.881Z,5.15
2023-02-03T17:13:19.478Z,4.25
2023-02-03T17:15:52.770Z,6.10
2023-02-03T17:18:20.519Z,5.80
2023-02-03T17:20:47.788Z,6.30
2023-02-03T17:23:16.485Z,4.97
2023-02-03T17:25:49.258Z,6.20
2023-02-03T17:28:16.341Z,5.65
2023-02-03T17:30:43.218Z,5.85
2023-02-03T17:33:13.252Z,5.93
2023-02-03T17:35:42.153Z,4.30
2023-02-03T17:38:10.413Z,4.68
2023-02-03T17:54:29.531Z,5.18
2023-02-03T17:56:56.321Z,6.18
2023-02-03T17:59:23.264Z,5.28
2023-02-03T18:01:50.251Z,6.13
2023-02-03T18:04:17.017Z,4.82
2023-02-03T18:06:43.966Z,4.65
2023-02-03T18:09:13.976Z,5.10
2023-02-03T18:11:40.795Z,5.38
2023-02-03T18:14:16.357Z,5.30
2023-02-03T18:16:44.059Z,5.28
2023-02-03T18:19:15.024Z,5.28
2023-02-03T18:21:43.071Z,4.15
2023-02-03T18:24:12.844Z,5.07
2023-02-03T18:26:51.157Z,5.55
2023-02-03T18:29:18.775Z,5.75
2023-02-03T18:31:46.669Z,5.18
2023-02-03T18:34:14.290Z,5.30
2023-02-03T18:39:15.063Z,5.72
2023-02-03T18:41:42.044Z,4.35
2023-02-03T18:44:09.228Z,5.13
2023-02-03T18:46:36.017Z,5.30
2023-02-03T18:49:02.911Z,4.10
2023-02-03T18:51:29.738Z,4.07
2023-02-03T18:53:58.315Z,4.72
2023-02-03T18:56:34.881Z,3.58
2023-02-03T18:59:08.503Z,4.15
2023-02-03T19:01:36.256Z,5.32
2023-02-03T19:04:03.865Z,5.03
2023-02-03T19:06:32.740Z,5.82
2023-02-03T19:09:00.620Z,4.95
2023-02-03T19:11:27.529Z,4.93
2023-02-03T19:13:54.333Z,5.07
2023-02-03T19:16:21.435Z,5.25
2023-02-03T19:18:48.643Z,6.00
2023-02-03T19:21:15.728Z,4.15
2023-02-03T19:23:42.929Z,3.95
2023-02-03T19:26:10.226Z,6.85
2023-02-03T19:28:37.867Z,4.03
2023-02-03T19:31:11.134Z,4.28
2023-02-03T19:33:38.492Z,5.40
2023-02-03T19:36:06.717Z,4.25
2023-02-03T19:38:34.098Z,5.68
2023-02-03T19:41:02.379Z,4.47
2023-02-03T19:43:30.942Z,4.43
2023-02-03T19:45:58.374Z,4.90
2023-02-03T19:48:25.283Z,4.07
2023-02-03T19:50:52.053Z,4.78
2023-02-03T19:53:19.234Z,5.13
2023-02-03T19:55:46.566Z,4.20
2023-02-03T19:58:13.894Z,5.28
2023-02-03T20:00:41.894Z,4.63
2023-02-03T20:03:09.427Z,4.75
2023-02-03T20:05:36.472Z,5.18
2023-02-03T20:08:04.356Z,6.20
2023-02-03T20:10:32.848Z,5.30
2023-02-03T20:13:00.314Z,5.63
2023-02-03T20:15:27.179Z,5.03
2023-02-03T20:17:54.317Z,6.05
2023-02-03T20:20:21.188Z,5.65
2023-02-03T20:22:48.840Z,5.45
2023-02-03T20:25:16.257Z,4.65
2023-02-03T20:27:43.228Z,6.18
2023-02-03T20:30:11.142Z,5.45
2023-02-03T20:32:38.335Z,5.63
2023-02-03T20:35:06.279Z,4.45
2023-02-03T20:37:35.943Z,6.45
2023-02-03T20:40:16.996Z,5.28
2023-02-03T20:42:43.821Z,5.88
2023-02-03T20:45:18.870Z,6.18
2023-02-03T20:47:46.116Z,5.72
2023-02-03T20:50:23.596Z,6.00
2023-02-03T20:52:52.818Z,5.60
2023-02-03T20:55:22.508Z,6.40
2023-02-03T20:57:51.462Z,6.45
2023-02-03T21:00:21.927Z,6.25
2023-02-03T21:03:07.566Z,5.72
2023-02-03T21:05:41.924Z,5.97
2023-02-03T21:08:18.767Z,6.20
2023-02-03T21:10:47.801Z,4.88
2023-02-03T21:13:22.953Z,6.35
2023-02-03T21:15:52.835Z,6.43
2023-02-03T21:19:07.289Z,6.55
2023-02-03T21:21:40.210Z,5.78
2023-02-03T21:24:32.936Z,6.85
2023-02-03T21:27:00.421Z,5.15
2023-02-03T21:29:33.251Z,5.47
2023-02-03T21:32:00.335Z,5.90
2023-02-03T21:34:35.649Z,6.90
2023-02-03T21:37:27.400Z,5.97
2023-02-03T21:39:54.185Z,5.65
2023-02-03T21:42:40.926Z,6.25
2023-02-03T21:45:25.167Z,5.65
2023-02-03T21:47:52.988Z,5.50
2023-02-03T21:50:36.963Z,5.45
2023-02-03T21:53:10.158Z,5.88
2023-02-03T21:55:39.914Z,6.78
2023-02-03T21:58:28.981Z,7.00
2023-02-03T22:00:58.766Z,5.95
2023-02-03T22:03:39.541Z,6.15
2023-02-03T22:06:09.312Z,6.55
2023-02-03T22:08:41.893Z,7.22
2023-02-03T22:11:09.413Z,7.75
2023-02-03T22:13:36.435Z,7.93
2023-02-03T22:16:03.826Z,6.63
2023-02-03T22:18:30.926Z,7.43
2023-02-03T22:20:57.789Z,7.13
2023-02-03T22:23:24.589Z,5.25
2023-02-03T22:25:51.543Z,6.35
2023-02-03T22:28:18.409Z,5.40
2023-02-03T22:30:45.362Z,4.30
2023-02-03T22:33:12.153Z,4.45
2023-02-03T22:35:38.951Z,4.40
2023-02-03T22:38:05.714Z,4.82
2023-02-03T22:40:32.819Z,4.35
2023-02-03T22:42:59.772Z,5.50
2023-02-03T22:45:26.519Z,4.57
2023-02-03T22:47:53.283Z,4.90
2023-02-03T22:50:27.137Z,4.15
2023-02-03T22:53:03.926Z,4.50
2023-02-03T22:55:31.439Z,4.68
2023-02-03T22:57:59.130Z,5.63
2023-02-03T23:00:26.751Z,4.65
2023-02-03T23:02:54.357Z,3.92
2023-02-03T23:05:21.983Z,4.50
2023-02-03T23:07:49.515Z,4.53
2023-02-03T23:10:25.463Z,5.22
2023-02-03T23:12:52.716Z,3.80
2023-02-03T23:15:19.576Z,4.63
2023-02-03T23:17:46.708Z,4.90
2023-02-03T23:20:16.429Z,5.38
2023-02-03T23:22:44.209Z,3.95
2023-02-03T23:25:11.870Z,5.50
2023-02-03T23:27:39.256Z,4.13
2023-02-03T23:30:07.020Z,6.13
2023-02-03T23:32:33.915Z,4.53
2023-02-03T23:35:21.496Z,4.97
2023-02-03T23:37:48.271Z,5.00
2023-02-03T23:40:15.864Z,4.47
2023-02-03T23:42:42.673Z,4.47
2023-02-03T23:45:12.018Z,4.65
2023-02-03T23:47:43.901Z,4.25
2023-02-03T23:50:14.815Z,4.07
2023-02-03T23:52:41.581Z,4.90
2023-02-03T23:55:15.783Z,4.65
